createdAt,value
2022-12-03T00:01:49.086Z,97.52
2022-12-03T00:04:16.034Z,97.99
2022-12-03T00:06:42.919Z,97.99
2022-12-03T00:09:10.470Z,97.24
2022-12-03T00:11:38.120Z,97.69
2022-12-03T00:14:05.096Z,96.46
2022-12-03T00:16:34.051Z,96.23
2022-12-03T00:19:01.010Z,97.31
2022-12-03T00:21:29.505Z,96.94
2022-12-03T00:23:56.614Z,96.24
2022-12-03T00:26:23.554Z,97.26
2022-12-03T00:28:51.303Z,97.19
2022-12-03T00:31:18.776Z,97.53
2022-12-03T00:33:45.609Z,96.59
2022-12-03T00:36:12.445Z,97.78
2022-12-03T00:38:39.309Z,97.36
2022-12-03T00:41:06.156Z,97.53
2022-12-03T00:43:33.093Z,97.21
2022-12-03T00:46:00.296Z,97.81
2022-12-03T00:48:27.394Z,98.58
2022-12-03T00:50:54.273Z,99.83
2022-12-03T00:53:21.186Z,99.12
2022-12-03T00:55:50.646Z,99.18
2022-12-03T00:58:18.046Z,99.41
2022-12-03T01:00:44.932Z,98.04
2022-12-03T01:03:11.821Z,99.17
2022-12-03T01:05:38.762Z,98.66
2022-12-03T01:08:05.847Z,99.05
2022-12-03T01:10:32.781Z,98.81
2022-12-03T01:12:59.602Z,98.52
2022-12-03T01:15:26.434Z,98.42
2022-12-03T01:17:54.348Z,99.05
2022-12-03T01:20:21.256Z,98.94
2022-12-03T01:22:48.227Z,97.89
2022-12-03T01:25:15.170Z,98.86
2022-12-03T01:27:42.134Z,98.97
2022-12-03T01:30:09.760Z,99.14
2022-12-03T01:32:36.611Z,99.09
2022-12-03T01:35:04.952Z,98.25
2022-12-03T01:37:33.940Z,98.54
2022-12-03T01:40:00.764Z,97.81
2022-12-03T01:42:39.504Z,98.33
2022-12-03T01:45:07.362Z,97.35
2022-12-03T01:47:36.775Z,97.65
2022-12-03T01:50:30.444Z,97.51
2022-12-03T01:53:00.540Z,97.60
2022-12-03T01:55:27.769Z,97.61
2022-12-03T01:57:59.161Z,97.56
2022-12-03T02:00:27.766Z,97.86
2022-12-03T02:02:58.104Z,98.08
2022-12-03T02:05:30.048Z,98.30
2022-12-03T02:07:58.007Z,99.76
2022-12-03T02:10:34.567Z,99.51
2022-12-03T02:13:06.179Z,99.96
2022-12-03T02:15:33.338Z,99.22
2022-12-03T02:18:00.732Z,98.53
2022-12-03T02:20:27.839Z,99.32
2022-12-03T02:23:05.171Z,100.00
2022-12-03T02:25:34.710Z,100.00
2022-12-03T02:28:03.057Z,100.00
2022-12-03T02:30:31.335Z,99.50
2022-12-03T02:32:59.447Z,99.04
2022-12-03T02:35:30.263Z,99.85
2022-12-03T02:38:07.668Z,100.00
2022-12-03T02:40:34.740Z,98.76
2022-12-03T02:43:03.456Z,98.63
2022-12-03T02:45:42.893Z,99.61
2022-12-03T02:48:21.509Z,99.03
2022-12-03T02:50:58.901Z,98.23
2022-12-03T02:53:37.996Z,98.08
2022-12-03T02:56:05.598Z,97.52
2022-12-03T02:58:33.918Z,98.27
2022-12-03T03:01:03.973Z,97.55
2022-12-03T03:03:32.465Z,98.32
2022-12-03T03:06:02.387Z,98.19
2022-12-03T03:08:30.919Z,97.35
2022-12-03T03:11:00.589Z,97.53
2022-12-03T03:13:29.537Z,98.04
2022-12-03T03:15:56.660Z,97.34
2022-12-03T03:18:23.687Z,98.03
2022-12-03T03:20:50.610Z,97.31
2022-12-03T03:23:20.192Z,96.64
2022-12-03T03:25:54.052Z,97.59
2022-12-03T03:28:22.764Z,98.43
2022-12-03T03:30:49.793Z,97.53
2022-12-03T03:33:16.991Z,97.38
2022-12-03T03:35:45.401Z,98.42
2022-12-03T03:38:12.746Z,97.98
2022-12-03T03:40:39.932Z,97.24
2022-12-03T03:43:07.607Z,98.44
2022-12-03T03:45:34.764Z,97.86
2022-12-03T03:48:01.802Z,97.83
2022-12-03T03:50:30.951Z,98.32
2022-12-03T03:53:00.099Z,98.47
2022-12-03T03:55:27.466Z,98.57
2022-12-03T03:57:54.788Z,97.68
2022-12-03T04:00:22.022Z,97.87
2022-12-03T04:02:48.881Z,97.69
2022-12-03T04:05:19.167Z,96.39
2022-12-03T04:07:46.564Z,97.52
2022-12-03T04:10:33.131Z,96.69
2022-12-03T04:13:00.573Z,96.57
2022-12-03T04:15:28.518Z,97.21
2022-12-03T04:18:14.068Z,96.93
2022-12-03T04:20:41.716Z,96.54
2022-12-03T04:23:09.283Z,96.48
2022-12-03T04:25:55.023Z,96.56
2022-12-03T04:28:39.998Z,96.39
2022-12-03T04:31:25.912Z,95.97
2022-12-03T04:34:11.610Z,96.06
2022-12-03T04:36:38.675Z,96.31
2022-12-03T04:39:05.616Z,95.39
2022-12-03T04:41:32.581Z,95.88
2022-12-03T04:44:19.508Z,95.11
2022-12-03T04:46:46.310Z,95.46
2022-12-03T04:49:13.319Z,94.89
2022-12-03T04:51:40.174Z,94.59
2022-12-03T04:54:07.022Z,95.79
2022-12-03T04:56:33.888Z,95.06
2022-12-03T04:59:00.799Z,95.94
2022-12-03T05:01:27.852Z,96.19
2022-12-03T05:03:54.924Z,96.09
2022-12-03T05:06:21.991Z,96.03
2022-12-03T05:08:48.895Z,95.87
2022-12-03T05:11:15.838Z,96.39
2022-12-03T05:13:43.298Z,95.59
2022-12-03T05:16:10.537Z,96.32
2022-12-03T05:18:37.489Z,96.26
2022-12-03T05:21:04.497Z,96.23
2022-12-03T05:23:32.285Z,95.46
2022-12-03T05:25:59.126Z,95.83
2022-12-03T05:28:26.064Z,95.36
2022-12-03T05:30:53.058Z,95.18
2022-12-03T05:33:20.611Z,96.42
2022-12-03T05:35:47.862Z,97.12
2022-12-03T05:38:14.968Z,99.70
2022-12-03T05:40:42.116Z,99.21
2022-12-03T05:43:08.984Z,97.91
2022-12-03T05:45:38.875Z,97.34
2022-12-03T05:48:09.085Z,97.24
2022-12-03T05:50:38.395Z,97.61
2022-12-03T05:53:15.636Z,96.92
2022-12-03T05:55:42.617Z,96.15
2022-12-03T05:58:09.915Z,96.62
2022-12-03T06:00:42.329Z,96.09
2022-12-03T06:03:10.734Z,95.48
2022-12-03T06:05:37.977Z,95.01
2022-12-03T06:08:05.085Z,95.30
2022-12-03T06:10:32.573Z,94.78
2022-12-03T06:12:59.580Z,95.60
2022-12-03T06:15:26.929Z,96.56
2022-12-03T06:17:53.860Z,96.59
2022-12-03T06:20:21.529Z,96.68
2022-12-03T06:22:50.144Z,96.95
2022-12-03T06:25:17.425Z,95.70
2022-12-03T06:27:44.801Z,95.19
2022-12-03T06:30:14.858Z,94.93
2022-12-03T06:32:41.846Z,94.43
2022-12-03T06:40:24.459Z,94.25
2022-12-03T06:42:51.820Z,93.60
2022-12-03T06:45:26.226Z,92.87
2022-12-03T06:47:53.023Z,93.21
2022-12-03T06:50:19.844Z,92.55
2022-12-03T06:52:47.148Z,93.47
2022-12-03T06:55:14.156Z,92.79
2022-12-03T06:57:43.637Z,92.76
2022-12-03T07:00:11.158Z,93.00
2022-12-03T07:02:38.147Z,92.98
2022-12-03T07:05:05.646Z,93.67
2022-12-03T07:07:32.675Z,92.92
2022-12-03T07:09:59.798Z,93.18
2022-12-03T07:12:26.726Z,93.86
2022-12-03T07:14:54.016Z,93.31
2022-12-03T07:17:21.139Z,92.71
2022-12-03T07:19:49.639Z,93.04
2022-12-03T07:22:16.768Z,93.13
2022-12-03T07:24:43.862Z,92.82
2022-12-03T07:27:10.788Z,93.80
2022-12-03T07:29:37.688Z,93.59
2022-12-03T07:32:05.361Z,92.97
2022-12-03T07:34:32.258Z,92.67
2022-12-03T07:36:59.139Z,92.06
2022-12-03T07:39:26.186Z,92.05
2022-12-03T07:41:53.124Z,92.94
2022-12-03T07:44:20.009Z,92.31
2022-12-03T07:46:47.146Z,92.62
2022-12-03T07:49:14.155Z,93.12
2022-12-03T07:51:41.642Z,91.76
2022-12-03T07:54:08.882Z,91.98
2022-12-03T07:56:36.050Z,92.25
2022-12-03T07:59:03.049Z,92.55
2022-12-03T08:01:30.061Z,91.40
2022-12-03T08:03:57.264Z,91.99
2022-12-03T08:06:24.235Z,91.78
2022-12-03T08:08:51.619Z,91.29
2022-12-03T08:11:23.007Z,91.19
2022-12-03T08:13:49.871Z,91.23
2022-12-03T08:16:19.423Z,91.63
2022-12-03T08:18:47.560Z,91.38
2022-12-03T08:21:17.314Z,90.92
2022-12-03T08:23:44.333Z,90.57
2022-12-03T08:26:23.388Z,90.94
2022-12-03T08:28:51.411Z,90.50
2022-12-03T08:31:32.703Z,90.59
2022-12-03T08:34:20.689Z,89.88
2022-12-03T08:36:51.021Z,89.11
2022-12-03T08:39:34.361Z,88.88
2022-12-03T08:42:38.137Z,89.39
2022-12-03T08:45:32.575Z,88.99
2022-12-03T08:48:06.051Z,89.20
2022-12-03T08:50:39.418Z,89.35
2022-12-03T08:53:38.459Z,88.55
2022-12-03T08:56:33.247Z,89.04
2022-12-03T08:59:30.810Z,89.75
2022-12-03T09:02:00.836Z,89.47
2022-12-03T09:04:27.837Z,88.54
2022-12-03T09:06:55.556Z,88.33
2022-12-03T09:09:24.091Z,88.49
2022-12-03T09:11:51.203Z,87.93
2022-12-03T09:14:21.139Z,87.44
2022-12-03T09:16:49.235Z,87.81
2022-12-03T09:19:16.278Z,87.57
2022-12-03T09:21:43.841Z,86.66
2022-12-03T09:24:10.785Z,86.71
2022-12-03T09:26:37.873Z,87.15
2022-12-03T09:29:10.422Z,86.45
2022-12-03T09:31:39.068Z,85.53
2022-12-03T09:34:06.554Z,85.71
2022-12-03T09:36:33.865Z,85.47
2022-12-03T09:39:00.840Z,85.70
2022-12-03T09:41:27.871Z,85.57
2022-12-03T09:44:05.741Z,85.34
2022-12-03T09:46:36.288Z,85.79
2022-12-03T09:49:05.111Z,85.19
2022-12-03T09:51:35.342Z,84.98
2022-12-03T09:54:06.366Z,84.05
2022-12-03T09:56:37.698Z,83.90
2022-12-03T09:59:13.774Z,83.03
2022-12-03T10:01:40.965Z,82.56
2022-12-03T10:04:08.275Z,82.14
2022-12-03T10:06:37.138Z,80.98
2022-12-03T10:09:06.902Z,81.58
2022-12-03T10:11:35.770Z,81.24
2022-12-03T10:14:05.607Z,81.44
2022-12-03T10:16:36.448Z,82.75
2022-12-03T10:19:03.515Z,81.81
2022-12-03T10:21:39.156Z,81.38
2022-12-03T10:24:27.646Z,80.95
2022-12-03T10:26:57.925Z,80.80
2022-12-03T10:29:33.122Z,79.24
2022-12-03T10:32:02.367Z,79.56
2022-12-03T10:34:40.642Z,80.14
2022-12-03T10:37:18.139Z,79.73
2022-12-03T10:39:56.371Z,79.76
2022-12-03T10:42:25.589Z,80.17
2022-12-03T10:45:07.633Z,79.74
2022-12-03T10:47:34.617Z,79.30
2022-12-03T10:50:06.010Z,79.93
2022-12-03T10:52:32.957Z,79.31
2022-12-03T10:54:59.981Z,78.94
2022-12-03T10:57:26.877Z,79.01
2022-12-03T10:59:53.775Z,78.51
2022-12-03T11:02:24.770Z,78.27
2022-12-03T11:04:52.442Z,79.76
2022-12-03T11:07:21.541Z,80.57
2022-12-03T11:09:51.239Z,81.20
2022-12-03T11:12:22.663Z,80.78
2022-12-03T11:14:51.064Z,80.56
2022-12-03T11:17:40.480Z,80.27
2022-12-03T11:20:36.109Z,79.55
2022-12-03T11:23:02.998Z,79.21
2022-12-03T11:25:31.561Z,79.05
2022-12-03T11:28:10.355Z,79.49
2022-12-03T11:30:49.316Z,79.80
2022-12-03T11:33:27.623Z,79.34
2022-12-03T11:36:03.801Z,78.99
2022-12-03T11:38:59.909Z,79.40
2022-12-03T11:41:32.964Z,78.93
2022-12-03T11:44:25.300Z,79.41
2022-12-03T11:46:52.451Z,78.66
2022-12-03T11:49:45.803Z,78.93
2022-12-03T11:52:22.038Z,78.29
2022-12-03T11:54:53.362Z,78.07
2022-12-03T11:57:29.766Z,77.88
2022-12-03T11:59:58.934Z,77.16
2022-12-03T12:03:17.068Z,77.82
2022-12-03T12:05:45.242Z,77.81
2022-12-03T12:08:19.572Z,77.57
2022-12-03T12:10:48.780Z,77.66
2022-12-03T12:13:31.323Z,77.34
2022-12-03T12:16:02.657Z,76.56
2022-12-03T12:18:42.130Z,77.02
2022-12-03T12:21:44.262Z,77.20
2022-12-03T12:24:29.703Z,77.38
2022-12-03T12:26:58.556Z,77.56
2022-12-03T12:29:25.446Z,77.26
2022-12-03T12:31:59.632Z,77.21
2022-12-03T12:34:26.702Z,77.03
2022-12-03T12:36:57.158Z,77.03
2022-12-03T12:39:25.437Z,77.02
2022-12-03T12:41:52.893Z,77.86
2022-12-03T12:44:23.692Z,77.08
2022-12-03T12:46:53.758Z,77.23
2022-12-03T12:49:26.809Z,77.66
2022-12-03T12:51:53.945Z,78.04
2022-12-03T12:54:21.169Z,77.79
2022-12-03T12:56:50.386Z,79.27
2022-12-03T12:59:20.294Z,79.89
2022-12-03T13:01:49.226Z,79.96
2022-12-03T13:04:26.352Z,80.46
2022-12-03T13:06:54.189Z,80.83
2022-12-03T13:09:25.222Z,81.64
2022-12-03T13:11:54.169Z,82.14
2022-12-03T13:14:26.245Z,82.08
2022-12-03T13:16:55.280Z,81.94
2022-12-03T13:19:26.449Z,82.39
2022-12-03T13:22:00.149Z,82.12
2022-12-03T13:24:35.978Z,83.33
2022-12-03T13:27:31.904Z,84.46
2022-12-03T13:30:15.820Z,84.77
2022-12-03T13:32:43.676Z,84.82
2022-12-03T13:35:10.612Z,84.47
2022-12-03T13:37:38.529Z,84.70
2022-12-03T13:40:21.026Z,85.14
2022-12-03T13:42:48.579Z,85.37
2022-12-03T13:45:15.498Z,85.23
2022-12-03T13:47:49.189Z,86.04
2022-12-03T13:50:36.665Z,86.34
2022-12-03T13:53:26.692Z,86.03
2022-12-03T13:56:30.104Z,86.91
2022-12-03T13:59:00.169Z,87.74
2022-12-03T14:01:28.418Z,87.73
2022-12-03T14:03:55.422Z,88.00
2022-12-03T14:06:22.720Z,88.86
2022-12-03T14:08:49.605Z,88.75
2022-12-03T14:11:35.017Z,88.63
2022-12-03T14:14:02.024Z,88.30
2022-12-03T14:16:29.687Z,87.98
2022-12-03T14:18:56.520Z,87.57
2022-12-03T14:21:23.439Z,87.44
2022-12-03T14:23:50.332Z,87.77
2022-12-03T14:26:17.252Z,86.95
2022-12-03T14:28:44.099Z,87.33
2022-12-03T14:31:11.047Z,87.68
2022-12-03T14:33:37.985Z,88.09
2022-12-03T14:36:05.179Z,88.68
2022-12-03T14:38:32.164Z,89.50
2022-12-03T14:40:59.187Z,89.21
2022-12-03T14:43:26.070Z,89.09
2022-12-03T14:45:53.000Z,88.91
2022-12-03T14:48:21.104Z,88.92
2022-12-03T14:50:48.119Z,89.33
2022-12-03T14:53:15.001Z,89.34
2022-12-03T14:55:41.869Z,88.65
2022-12-03T14:58:08.708Z,88.92
2022-12-03T15:00:36.697Z,88.73
2022-12-03T15:03:03.730Z,88.38
2022-12-03T15:05:30.833Z,88.27
2022-12-03T15:07:57.836Z,88.26
2022-12-03T15:10:24.799Z,87.78
2022-12-03T15:19:33.273Z,88.31
2022-12-03T15:22:00.164Z,88.59
2022-12-03T15:24:27.091Z,89.05
2022-12-03T15:26:53.982Z,88.24
2022-12-03T15:29:21.021Z,88.35
2022-12-03T15:31:48.018Z,88.92
2022-12-03T15:34:20.460Z,89.18
2022-12-03T15:36:49.262Z,89.24
2022-12-03T15:39:16.143Z,89.98
2022-12-03T15:41:44.494Z,90.13
2022-12-03T15:44:11.385Z,89.83
2022-12-03T15:46:46.571Z,89.22
2022-12-03T15:49:14.366Z,88.92
2022-12-03T15:51:41.359Z,90.62
2022-12-03T15:54:09.008Z,90.96
2022-12-03T15:56:37.711Z,91.45
2022-12-03T15:59:04.765Z,90.58
2022-12-03T16:01:31.730Z,90.66
2022-12-03T16:03:58.681Z,90.99
2022-12-03T16:06:25.545Z,91.05
2022-12-03T16:08:52.363Z,91.17
2022-12-03T16:11:19.294Z,92.06
2022-12-03T16:13:46.247Z,92.76
2022-12-03T16:16:13.178Z,91.80
2022-12-03T16:18:40.143Z,91.20
2022-12-03T16:21:07.015Z,91.93
2022-12-03T16:23:34.043Z,92.26
2022-12-03T16:26:02.166Z,92.26
2022-12-03T16:28:29.072Z,91.94
2022-12-03T16:30:55.953Z,91.93
2022-12-03T16:33:27.560Z,92.41
2022-12-03T16:35:55.006Z,92.20
2022-12-03T16:38:21.931Z,92.55
2022-12-03T16:40:48.792Z,92.57
2022-12-03T16:43:16.015Z,91.53
2022-12-03T16:45:42.857Z,91.29
2022-12-03T16:48:09.767Z,90.38
2022-12-03T16:50:37.697Z,90.52
2022-12-03T16:53:04.617Z,91.89
2022-12-03T16:55:31.535Z,92.50
2022-12-03T16:57:58.451Z,92.67
2022-12-03T17:00:26.019Z,93.43
2022-12-03T17:02:53.015Z,94.03
2022-12-03T17:05:19.927Z,93.50
2022-12-03T17:07:46.935Z,94.06
2022-12-03T17:10:14.164Z,94.02
2022-12-03T17:13:08.210Z,94.07
2022-12-03T17:15:28.181Z,93.81
2022-12-03T17:17:55.149Z,94.29
2022-12-03T17:20:22.241Z,94.08
2022-12-03T17:22:49.284Z,93.78
2022-12-03T17:25:16.459Z,93.53
2022-12-03T17:27:45.466Z,92.78
2022-12-03T17:30:13.868Z,93.04
2022-12-03T17:32:40.784Z,93.19
2022-12-03T17:35:08.827Z,92.22
2022-12-03T17:37:36.173Z,91.85
2022-12-03T17:40:05.673Z,92.14
2022-12-03T17:42:32.592Z,92.80
2022-12-03T17:44:59.504Z,92.57
2022-12-03T17:47:26.348Z,93.06
2022-12-03T17:49:53.682Z,92.11
2022-12-03T17:52:20.914Z,92.40
2022-12-03T17:57:38.453Z,92.34
2022-12-03T18:00:08.577Z,92.37
2022-12-03T18:02:42.340Z,92.32
2022-12-03T18:05:10.130Z,93.15
2022-12-03T18:07:37.270Z,92.85
2022-12-03T18:10:04.694Z,93.76
2022-12-03T18:12:31.766Z,93.40
2022-12-03T18:14:58.650Z,93.91
2022-12-03T18:17:25.711Z,93.34
2022-12-03T18:19:52.951Z,92.38
2022-12-03T18:22:20.594Z,92.43
2022-12-03T18:24:51.530Z,92.50
2022-12-03T18:27:21.228Z,92.69
2022-12-03T18:29:48.720Z,91.80
2022-12-03T18:32:28.201Z,91.20
2022-12-03T18:34:57.046Z,91.82
2022-12-03T18:37:27.094Z,90.73
2022-12-03T18:39:55.235Z,90.74
2022-12-03T18:42:23.810Z,91.04
2022-12-03T18:44:52.803Z,90.67
2022-12-03T18:47:23.330Z,90.62
2022-12-03T18:49:51.187Z,90.71
2022-12-03T18:52:22.030Z,90.90
2022-12-03T18:54:49.313Z,91.06
2022-12-03T18:57:17.641Z,92.29
2022-12-03T18:59:44.654Z,91.38
2022-12-03T19:02:54.365Z,91.84
2022-12-03T19:05:11.111Z,92.60
2022-12-03T19:07:38.092Z,91.92
2022-12-03T19:10:05.867Z,92.71
2022-12-03T19:12:33.733Z,92.83
2022-12-03T19:15:01.139Z,92.45
2022-12-03T19:17:28.189Z,91.99
2022-12-03T19:19:55.705Z,92.31
2022-12-03T19:22:23.658Z,92.41
2022-12-03T19:24:50.717Z,91.83
2022-12-03T19:27:20.313Z,92.17
2022-12-03T19:29:50.344Z,91.62
2022-12-03T19:32:17.596Z,91.60
2022-12-03T19:34:44.476Z,91.52
2022-12-03T19:37:11.399Z,91.29
2022-12-03T19:39:38.453Z,91.38
2022-12-03T19:42:05.397Z,91.51
2022-12-03T19:44:32.900Z,90.83
2022-12-03T19:46:59.770Z,92.59
2022-12-03T19:49:27.259Z,91.00
2022-12-03T19:51:54.618Z,92.16
2022-12-03T19:54:21.494Z,92.02
2022-12-03T19:56:48.629Z,92.59
2022-12-03T19:59:15.806Z,92.86
2022-12-03T20:01:43.189Z,93.13
2022-12-03T20:04:11.134Z,92.41
2022-12-03T20:06:39.225Z,92.06
2022-12-03T20:09:17.633Z,91.70
2022-12-03T20:12:04.815Z,91.57
2022-12-03T20:29:41.976Z,90.98
2022-12-03T20:32:55.643Z,90.49
2022-12-03T20:35:23.588Z,90.93
2022-12-03T20:37:50.384Z,91.05
2022-12-03T20:40:17.572Z,91.79
2022-12-03T20:42:47.641Z,91.27
2022-12-03T20:45:15.117Z,91.57
2022-12-03T20:47:41.984Z,90.45
2022-12-03T20:50:09.219Z,91.35
2022-12-03T20:52:36.062Z,90.58
2022-12-03T20:55:02.896Z,90.63
2022-12-03T20:57:32.636Z,90.57
2022-12-03T20:59:59.613Z,91.77
2022-12-03T21:02:26.815Z,91.90
2022-12-03T21:04:53.844Z,91.20
2022-12-03T21:07:20.741Z,91.08
2022-12-03T21:09:47.580Z,91.32
2022-12-03T21:12:15.257Z,92.23
2022-12-03T21:14:42.274Z,91.92
2022-12-03T21:17:09.822Z,92.19
2022-12-03T21:19:38.761Z,92.06
2022-12-03T21:22:06.231Z,91.90
2022-12-03T21:24:33.675Z,91.87
2022-12-03T21:27:00.768Z,91.86
2022-12-03T21:29:27.641Z,92.39
2022-12-03T21:31:54.588Z,92.98
2022-12-03T21:34:21.660Z,92.85
2022-12-03T21:36:48.659Z,92.90
2022-12-03T21:39:15.597Z,93.74
2022-12-03T21:42:18.837Z,93.85
2022-12-03T21:44:29.355Z,95.30
2022-12-03T21:47:10.001Z,94.94
2022-12-03T21:49:41.484Z,95.35
2022-12-03T21:52:08.542Z,93.87
2022-12-03T21:54:35.509Z,93.94
2022-12-03T22:03:46.752Z,93.48
2022-12-03T22:06:14.377Z,92.83
2022-12-03T22:08:41.821Z,93.82
2022-12-03T22:11:15.079Z,93.39
2022-12-03T22:13:43.459Z,92.35
2022-12-03T22:16:16.286Z,92.29
2022-12-03T22:18:43.422Z,91.84
2022-12-03T22:21:13.240Z,92.61
2022-12-03T22:23:40.676Z,92.46
2022-12-03T22:26:12.028Z,92.90
2022-12-03T22:28:42.174Z,92.70
2022-12-03T22:31:09.751Z,93.48
2022-12-03T22:33:39.695Z,93.04
2022-12-03T22:36:13.407Z,92.84
2022-12-03T22:38:47.663Z,92.60
2022-12-03T22:41:15.746Z,93.17
2022-12-03T22:43:43.382Z,93.95
2022-12-03T22:46:12.754Z,94.20
2022-12-03T22:48:41.964Z,94.01
2022-12-03T22:51:26.795Z,94.50
2022-12-03T22:53:57.944Z,93.79
2022-12-03T22:56:26.168Z,94.13
2022-12-03T22:58:53.466Z,93.53
2022-12-03T23:01:23.041Z,92.38
2022-12-03T23:03:50.756Z,92.96
2022-12-03T23:06:18.699Z,93.02
2022-12-03T23:08:45.982Z,94.65
2022-12-03T23:11:12.903Z,95.46
2022-12-03T23:13:40.203Z,95.32
2022-12-03T23:16:08.852Z,95.78
2022-12-03T23:18:35.881Z,94.71
2022-12-03T23:21:02.818Z,94.23
2022-12-03T23:23:29.710Z,94.21
2022-12-03T23:26:04.388Z,94.88
2022-12-03T23:28:34.178Z,93.34
2022-12-03T23:31:01.247Z,93.17
2022-12-03T23:33:28.903Z,94.37
2022-12-03T23:35:55.781Z,95.27
2022-12-03T23:38:22.644Z,96.22
2022-12-03T23:40:49.759Z,96.04
2022-12-03T23:43:16.621Z,96.55
2022-12-03T23:45:43.478Z,95.07
2022-12-03T23:48:10.391Z,96.45
2022-12-03T23:50:41.319Z,96.09
2022-12-03T23:53:08.415Z,95.31
2022-12-03T23:55:39.281Z,96.26
2022-12-03T23:58:06.137Z,94.70
